sensor_id;sensor_type;location;lat;lon;timestamp;pressure;altitude;pressure_sealevel;temperature;humidity
27864;BME280;15980;51.092;13.916;2024-01-15T00:09:35;96792.34;;;1.21;79.56
27864;BME280;15980;51.092;13.916;2024-01-15T00:19:35;96781.59;;;1.13;79.12
27864;BME280;15980;51.092;13.916;2024-01-15T00:29:36;96775.91;;;1.06;79.75
27864;BME280;15980;51.092;13.916;2024-01-15T00:39:36;96776.25;;;1.04;79.22
27864;BME280;15980;51.092;13.916;2024-01-15T00:49:36;96769.44;;;0.98;80.21
27864;BME280;15980;51.092;13.916;2024-01-15T00:59:36;96758.31;;;1.00;80.25
27864;BME280;15980;51.092;13.916;2024-01-15T01:09:37;96741.00;;;1.01;79.90
27864;BME280;15980;51.092;13.916;2024-01-15T01:19:37;96723.47;;;1.07;79.91
27864;BME280;15980;51.092;13.916;2024-01-15T01:29:37;96722.09;;;1.01;79.59
27864;BME280;15980;51.092;13.916;2024-01-15T01:39:38;96710.03;;;0.98;79.43
27864;BME280;15980;51.092;13.916;2024-01-15T01:49:38;96702.25;;;0.67;80.06
27864;BME280;15980;51.092;13.916;2024-01-15T01:59:38;96702.88;;;1.02;78.93
27864;BME280;15980;51.092;13.916;2024-01-15T02:09:39;96698.75;;;0.67;80.74
27864;BME280;15980;51.092;13.916;2024-01-15T02:19:39;96696.19;;;0.70;79.62
27864;BME280;15980;51.092;13.916;2024-01-15T02:29:40;96694.94;;;0.68;78.87
27864;BME280;15980;51.092;13.916;2024-01-15T02:39:40;96682.69;;;0.70;79.14
27864;BME280;15980;51.092;13.916;2024-01-15T02:49:41;96674.56;;;0.49;82.78
27864;BME280;15980;51.092;13.916;2024-01-15T02:59:41;96679.16;;;0.49;82.08
27864;BME280;15980;51.092;13.916;2024-01-15T03:09:41;96646.34;;;0.38;80.48
27864;BME280;15980;51.092;13.916;2024-01-15T03:19:42;96658.84;;;0.51;79.23
27864;BME280;15980;51.092;13.916;2024-01-15T03:29:43;96660.28;;;0.49;78.85
27864;BME280;15980;51.092;13.916;2024-01-15T03:39:43;96657.84;;;0.18;79.06
27864;BME280;15980;51.092;13.916;2024-01-15T03:49:43;96657.56;;;0.49;78.73
27864;BME280;15980;51.092;13.916;2024-01-15T03:59:43;96656.16;;;-0.04;82.42
27864;BME280;15980;51.092;13.916;2024-01-15T04:09:44;96634.44;;;-0.08;82.15
27864;BME280;15980;51.092;13.916;2024-01-15T04:19:44;96643.97;;;-0.10;81.97
27864;BME280;15980;51.092;13.916;2024-01-15T04:29:44;96630.34;;;-0.14;81.43
27864;BME280;15980;51.092;13.916;2024-01-15T04:39:44;96644.81;;;-0.27;81.37
27864;BME280;15980;51.092;13.916;2024-01-15T04:49:45;96635.06;;;-0.02;80.49
27864;BME280;15980;51.092;13.916;2024-01-15T04:59:45;96658.53;;;-0.03;80.60
27864;BME280;15980;51.092;13.916;2024-01-15T05:27:15;96654.78;;;-0.45;80.03
27864;BME280;15980;51.092;13.916;2024-01-15T05:37:16;96659.38;;;-0.28;78.69
27864;BME280;15980;51.092;13.916;2024-01-15T05:47:16;96656.22;;;-0.30;79.30
27864;BME280;15980;51.092;13.916;2024-01-15T05:57:16;96660.66;;;-0.25;79.37
27864;BME280;15980;51.092;13.916;2024-01-15T06:07:17;96662.69;;;-0.22;78.37
27864;BME280;15980;51.092;13.916;2024-01-15T06:17:17;96648.78;;;-0.33;77.45
27864;BME280;15980;51.092;13.916;2024-01-15T06:27:17;96632.75;;;-0.21;77.44
27864;BME280;15980;51.092;13.916;2024-01-15T06:37:17;96640.16;;;-0.09;76.13
27864;BME280;15980;51.092;13.916;2024-01-15T06:47:18;96643.16;;;-0.11;75.96
27864;BME280;15980;51.092;13.916;2024-01-15T06:57:18;96645.06;;;-0.11;75.65
27864;BME280;15980;51.092;13.916;2024-01-15T07:07:18;96652.88;;;-0.18;75.05
27864;BME280;15980;51.092;13.916;2024-01-15T07:17:19;96646.38;;;-0.26;75.66
27864;BME280;15980;51.092;13.916;2024-01-15T07:27:19;96676.78;;;-0.08;76.55
27864;BME280;15980;51.092;13.916;2024-01-15T07:37:21;96700.75;;;-0.24;77.77
27864;BME280;15980;51.092;13.916;2024-01-15T07:47:21;96710.56;;;-0.11;76.75
27864;BME280;15980;51.092;13.916;2024-01-15T07:57:21;96686.31;;;-0.11;75.70
27864;BME280;15980;51.092;13.916;2024-01-15T08:07:22;96685.50;;;-0.11;75.50
27864;BME280;15980;51.092;13.916;2024-01-15T08:17:22;96704.69;;;-0.13;74.38
27864;BME280;15980;51.092;13.916;2024-01-15T08:27:22;96710.88;;;-0.12;75.00
27864;BME280;15980;51.092;13.916;2024-01-15T08:37:23;96727.53;;;-0.10;74.59
27864;BME280;15980;51.092;13.916;2024-01-15T08:47:23;96716.25;;;0.05;73.53
27864;BME280;15980;51.092;13.916;2024-01-15T08:57:23;96710.31;;;0.29;73.41
27864;BME280;15980;51.092;13.916;2024-01-15T09:07:23;96705.72;;;0.29;73.03
27864;BME280;15980;51.092;13.916;2024-01-15T09:17:24;96693.88;;;0.13;72.87
27864;BME280;15980;51.092;13.916;2024-01-15T09:27:24;96711.72;;;0.44;71.72
27864;BME280;15980;51.092;13.916;2024-01-15T09:37:25;96728.00;;;0.56;71.06
27864;BME280;15980;51.092;13.916;2024-01-15T09:47:25;96715.31;;;0.94;70.01
27864;BME280;15980;51.092;13.916;2024-01-15T09:57:27;96702.28;;;1.17;68.54
27864;BME280;15980;51.092;13.916;2024-01-15T10:07:29;96712.06;;;1.31;68.55
27864;BME280;15980;51.092;13.916;2024-01-15T10:17:29;96695.69;;;1.27;67.82
27864;BME280;15980;51.092;13.916;2024-01-15T10:27:30;96703.31;;;1.34;67.96
27864;BME280;15980;51.092;13.916;2024-01-15T10:37:33;96687.19;;;0.96;67.59
27864;BME280;15980;51.092;13.916;2024-01-15T10:47:33;96685.94;;;1.14;67.45
27864;BME280;15980;51.092;13.916;2024-01-15T10:57:34;96682.00;;;1.53;67.37
27864;BME280;15980;51.092;13.916;2024-01-15T11:07:35;96689.63;;;1.09;67.07
27864;BME280;15980;51.092;13.916;2024-01-15T11:17:57;96672.38;;;1.22;67.64
27864;BME280;15980;51.092;13.916;2024-01-15T11:27:58;96674.34;;;1.13;67.63
27864;BME280;15980;51.092;13.916;2024-01-15T11:37:58;96673.56;;;1.13;67.59
27864;BME280;15980;51.092;13.916;2024-01-15T11:48:11;96672.25;;;1.61;66.53
27864;BME280;15980;51.092;13.916;2024-01-15T11:58:12;96656.16;;;1.64;66.05
27864;BME280;15980;51.092;13.916;2024-01-15T12:08:13;96673.22;;;1.56;66.09
27864;BME280;15980;51.092;13.916;2024-01-15T12:18:14;96658.38;;;1.62;66.42
27864;BME280;15980;51.092;13.916;2024-01-15T12:28:15;96659.97;;;1.63;66.65
27864;BME280;15980;51.092;13.916;2024-01-15T12:38:18;96663.03;;;1.41;68.86
27864;BME280;15980;51.092;13.916;2024-01-15T12:48:19;96627.44;;;1.18;70.84
27864;BME280;15980;51.092;13.916;2024-01-15T12:58:19;96641.41;;;1.20;70.52
27864;BME280;15980;51.092;13.916;2024-01-15T13:08:19;96638.47;;;1.34;71.16
27864;BME280;15980;51.092;13.916;2024-01-15T13:18:20;96633.47;;;1.56;71.40
27864;BME280;15980;51.092;13.916;2024-01-15T13:28:20;96635.44;;;1.68;70.67
27864;BME280;15980;51.092;13.916;2024-01-15T13:38:20;96646.94;;;1.03;72.71
27864;BME280;15980;51.092;13.916;2024-01-15T13:48:21;96673.22;;;1.14;73.80
27864;BME280;15980;51.092;13.916;2024-01-15T13:58:21;96685.72;;;0.69;76.93
27864;BME280;15980;51.092;13.916;2024-01-15T14:08:21;96694.97;;;0.59;80.46
27864;BME280;15980;51.092;13.916;2024-01-15T14:18:21;96699.81;;;0.74;82.49
27864;BME280;15980;51.092;13.916;2024-01-15T14:28:22;96688.50;;;0.51;83.51
27864;BME280;15980;51.092;13.916;2024-01-15T14:38:22;96707.63;;;0.29;83.39
27864;BME280;15980;51.092;13.916;2024-01-15T14:48:22;96720.13;;;0.34;84.60
27864;BME280;15980;51.092;13.916;2024-01-15T14:58:23;96717.69;;;0.03;86.16
27864;BME280;15980;51.092;13.916;2024-01-15T15:08:23;96725.31;;;-0.17;90.27
27864;BME280;15980;51.092;13.916;2024-01-15T15:18:23;96720.28;;;-0.36;91.76
27864;BME280;15980;51.092;13.916;2024-01-15T15:28:23;96732.16;;;-0.28;92.82
27864;BME280;15980;51.092;13.916;2024-01-15T15:38:24;96738.34;;;-0.36;93.06
27864;BME280;15980;51.092;13.916;2024-01-15T15:48:24;96740.09;;;-0.40;92.64
27864;BME280;15980;51.092;13.916;2024-01-15T15:58:24;96752.75;;;-0.32;90.23
27864;BME280;15980;51.092;13.916;2024-01-15T16:08:24;96758.31;;;-0.28;89.69
27864;BME280;15980;51.092;13.916;2024-01-15T16:18:25;96765.75;;;-0.17;88.33
27864;BME280;15980;51.092;13.916;2024-01-15T16:28:25;96790.31;;;0.08;87.98
27864;BME280;15980;51.092;13.916;2024-01-15T16:38:25;96796.03;;;0.15;86.53
27864;BME280;15980;51.092;13.916;2024-01-15T16:48:26;96797.47;;;0.04;86.25
27864;BME280;15980;51.092;13.916;2024-01-15T16:58:26;96807.75;;;0.10;86.04
27864;BME280;15980;51.092;13.916;2024-01-15T17:08:26;96801.75;;;0.05;85.24
27864;BME280;15980;51.092;13.916;2024-01-15T17:18:26;96817.13;;;0.04;87.33
27864;BME280;15980;51.092;13.916;2024-01-15T17:28:27;96804.91;;;-0.02;89.35
27864;BME280;15980;51.092;13.916;2024-01-15T17:38:28;96809.03;;;-0.22;91.57
27864;BME280;15980;51.092;13.916;2024-01-15T17:48:28;96810.94;;;-0.14;90.74
27864;BME280;15980;51.092;13.916;2024-01-15T17:58:28;96830.47;;;0.01;88.17
27864;BME280;15980;51.092;13.916;2024-01-15T18:08:29;96852.34;;;0.08;86.50
27864;BME280;15980;51.092;13.916;2024-01-15T18:18:29;96849.31;;;0.01;86.50
27864;BME280;15980;51.092;13.916;2024-01-15T18:28:29;96851.53;;;0.07;88.24
27864;BME280;15980;51.092;13.916;2024-01-15T18:38:30;96853.25;;;-0.06;89.52
27864;BME280;15980;51.092;13.916;2024-01-15T18:48:30;96871.19;;;-0.01;90.40
27864;BME280;15980;51.092;13.916;2024-01-15T18:58:30;96860.56;;;-0.15;93.08
27864;BME280;15980;51.092;13.916;2024-01-15T19:08:31;96861.19;;;-0.18;96.02
27864;BME280;15980;51.092;13.916;2024-01-15T19:18:31;96871.66;;;-0.16;96.49
27864;BME280;15980;51.092;13.916;2024-01-15T19:28:32;96878.31;;;-0.22;97.93
27864;BME280;15980;51.092;13.916;2024-01-15T19:38:33;96875.47;;;-0.17;97.30
27864;BME280;15980;51.092;13.916;2024-01-15T19:48:33;96877.34;;;-0.26;98.83
27864;BME280;15980;51.092;13.916;2024-01-15T19:58:34;96895.59;;;-0.15;98.83
27864;BME280;15980;51.092;13.916;2024-01-15T20:08:34;96909.84;;;-0.23;98.72
27864;BME280;15980;51.092;13.916;2024-01-15T20:18:35;96913.97;;;-0.17;97.11
27864;BME280;15980;51.092;13.916;2024-01-15T20:28:35;96937.44;;;-0.17;95.99
27864;BME280;15980;51.092;13.916;2024-01-15T20:38:36;96944.09;;;-0.23;95.62
27864;BME280;15980;51.092;13.916;2024-01-15T20:48:37;96962.50;;;-0.17;94.31
27864;BME280;15980;51.092;13.916;2024-01-15T20:58:37;96974.41;;;-0.09;94.81
27864;BME280;15980;51.092;13.916;2024-01-15T21:08:37;96970.41;;;-0.29;95.86
27864;BME280;15980;51.092;13.916;2024-01-15T21:18:38;96990.25;;;-0.16;95.85
27864;BME280;15980;51.092;13.916;2024-01-15T21:28:38;97001.44;;;0.08;97.50
27864;BME280;15980;51.092;13.916;2024-01-15T21:38:38;97005.47;;;-0.20;99.94
27864;BME280;15980;51.092;13.916;2024-01-15T21:48:39;97021.81;;;-0.08;99.32
27864;BME280;15980;51.092;13.916;2024-01-15T21:58:39;97043.81;;;-0.23;98.41
27864;BME280;15980;51.092;13.916;2024-01-15T22:08:39;97062.56;;;-0.10;98.40
27864;BME280;15980;51.092;13.916;2024-01-15T22:18:39;97063.94;;;-0.29;100.00
27864;BME280;15980;51.092;13.916;2024-01-15T22:28:40;97080.28;;;-0.26;100.00
27864;BME280;15980;51.092;13.916;2024-01-15T22:38:40;97091.56;;;-0.15;100.00
27864;BME280;15980;51.092;13.916;2024-01-15T22:48:40;97120.78;;;-0.09;98.47
27864;BME280;15980;51.092;13.916;2024-01-15T22:58:40;97125.94;;;-0.21;100.00
27864;BME280;15980;51.092;13.916;2024-01-15T23:08:41;97127.38;;;-0.23;100.00
27864;BME280;15980;51.092;13.916;2024-01-15T23:18:41;97147.81;;;-0.22;100.00
27864;BME280;15980;51.092;13.916;2024-01-15T23:28:42;97150.34;;;-0.48;100.00
27864;BME280;15980;51.092;13.916;2024-01-15T23:38:42;97172.03;;;-0.31;99.62
27864;BME280;15980;51.092;13.916;2024-01-15T23:48:42;97188.56;;;-0.24;96.94
27864;BME280;15980;51.092;13.916;2024-01-15T23:58:44;97200.56;;;-0.30;94.04
